Meteo Giornale » Osservazioni meteo Italia » Roma-Ciampino

ore: 07:50 - Osservazioni Meteo Roma-Ciampino
Lat. 41° 47' N Lon. 12° 35' E Alt. 129 metri s.l.m.

poco_nuvoloso Europe/Rome

11 °C

Poco Nuvoloso

Temp. 24 Ore

8 °C

22 °C

Nord

7.4 Km/h

Dew point 10 °C

Umidità 93 %

Visibilità  10 Km

Il sole sorge alle ore 06:00

Il sole tramonta alle ore 18:30

Data e Ora Cielo e Fenomeni T °C DP °C Um. % Pres. hPa Vis. km Vento km/h
Oggi h: 07:50 poco_nuvoloso Poco Nuvoloso 11 10 93 1019 10 N 7.4
Oggi h: 07:20 poco_nuvoloso Poco Nuvoloso 11 9 87 1019 10 N 3.7
Oggi h: 06:50 poco_nuvoloso Poco Nuvoloso 9 9 100 1019 10 E 7.4
Oggi h: 06:20 poco_nuvoloso Poco Nuvoloso 9 8 93 1020 10 N 5.5
Oggi h: 05:50 sereno Sereno 10 9 93 1019 10 N 5.5
Oggi h: 05:20 sereno Sereno 9 8 93 1019 10 E/NE 7.4
Oggi h: 04:20 sereno Sereno 9 8 93 1019 10 N 5.5
Oggi h: 03:50 sereno Sereno 8 8 100 1019 10 N 3.7
Oggi h: 03:20 sereno Sereno 9 8 93 1019 10 N 5.5
Oggi h: 03:50 sereno Sereno 10 9 93 1019 10 N 3.7
Oggi h: 03:20 sereno Sereno 11 10 93 1019 10 N 3.7
Oggi h: 01:50 sereno Sereno 11 10 93 1019 10 N 3.7
Oggi h: 01:20 nuvoloso Nuvoloso 12 11 93 1020 10 N 5.5
Oggi h: 00:50 nuvoloso Nuvoloso 12 11 93 1020 10 N 5.5
Oggi h: 00:20 nuvoloso Nuvoloso 12 11 93 1020 10 O 11.1
Ieri h: 23:50 nuvoloso Nuvoloso 13 12 93 1020 10 O/SO 13
Ieri h: 23:20 coperto_pioggia Pioggia 14 12 87 1019 7 N 3.7
Ieri h: 22:50 coperto_pioggia Pioggia Debole 14 12 87 1019 10 N 5.5
Ieri h: 22:20 nuvoloso Nuvoloso 14 12 87 1019 10 E/SE 7.4
Ieri h: 21:50 nuvoloso Nuvoloso 14 12 87 1020 10 E/SE 7.4
Ieri h: 21:20 nuvoloso Nuvoloso 14 12 87 1020 9 N 5.5
Ieri h: 20:50 molto_nuvoloso Molto Nuvoloso 14 12 87 1020 9 N 5.5
Ieri h: 20:20 nuvoloso Nuvoloso 14 12 87 1020 9 N 5.5
Ieri h: 19:50 poco_nuvoloso Poco Nuvoloso 13 11 87 1020 10 N 3.7
Ieri h: 19:20 poco_nuvoloso Poco Nuvoloso 14 11 82 1020 10 N 5.5
Ieri h: 18:50 sereno Sereno 15 11 76 1019 10 S/SE 7.4
Ieri h: 18:20 sereno Sereno 15 11 76 1019 10 S 11.1
Ieri h: 17:50 sereno Sereno 16 11 72 1019 10 S/SO 11.1
Ieri h: 17:20 sereno Sereno 17 9 59 1018 10 S 16.7
Ieri h: 16:50 sereno Sereno 17 10 63 1018 10 S/SO 20.3
Ieri h: 16:20 sereno Sereno 18 7 48 1018 10 S 20.3
Ieri h: 15:50 sereno Sereno 19 7 45 1018 10 S/SO 20.3
Ieri h: 15:20 sereno Sereno 19 9 52 1019 10 S/SO 20.3
Ieri h: 14:50 sereno Sereno 19 10 55 1019 10 S 20.3
Ieri h: 14:20 sereno Sereno 20 9 49 1019 10 S 18.5
Ieri h: 13:20 sereno Sereno 21 9 46 1020 10 S/SO 18.5
Ieri h: 12:50 sereno Sereno 22 7 37 1020 10 S 16.7
Ieri h: 12:20 sereno Sereno 22 8 40 1021 10 S/SE 16.7
Ieri h: 11:50 sereno Sereno 22 9 43 1021 10 S 16.7
Ieri h: 11:20 sereno Sereno 22 8 40 1021 10 S 13
Ieri h: 10:50 sereno Sereno 20 11 56 1021 10 N/NO 7.4
Ieri h: 10:20 sereno Sereno 19 11 59 1021 10 N/NO 7.4
Ieri h: 09:50 sereno Sereno 18 11 63 1021 10 N/NO 9.3
Ieri h: 09:20 sereno Sereno 17 10 63 1021 10 N 5.5
Ieri h: 08:50 sereno Sereno 15 10 72 1021 10 N 5.5